Time;durP1;ratioP1;P1;durP2;ratioP2;P2;SDS_P1;SDS_P2;PMS_P1;PMS_P2;Temp;Humidity;BMP_temperature;BMP_pressure;BME280_temperature;BME280_humidity;BME280_pressure;Samples;Min_cycle;Max_cycle;Signal;HPM_P1;HPM_P2
2021/08/11 00:00:12;;;;;;;20.40;9.68;;;;;;;;;;5079878;28;20044;-66
2021/08/11 00:02:38;;;;;;;18.42;9.43;;;;;;;;;;5074872;28;20024;-66
2021/08/11 00:05:03;;;;;;;18.52;9.50;;;;;;;;;;5083826;28;20073;-67
2021/08/11 00:07:28;;;;;;;13.43;8.63;;;;;;;;;;5088792;28;20024;-66
2021/08/11 00:09:54;;;;;;;21.50;9.17;;;;;;;;;;5072697;28;20123;-68
2021/08/11 00:12:19;;;;;;;17.23;9.13;;;;;;;;;;5086328;28;20262;-66
2021/08/11 00:14:44;;;;;;;14.57;8.87;;;;;;;;;;5088617;28;20019;-66
2021/08/11 00:17:09;;;;;;;16.97;9.47;;;;;;;;;;5069885;28;20266;-66
2021/08/11 00:19:34;;;;;;;17.25;8.85;;;;;;;;;;5086155;28;20372;-66
2021/08/11 00:22:00;;;;;;;16.27;9.47;;;;;;;;;;5089870;28;20022;-67
2021/08/11 00:24:25;;;;;;;15.70;8.70;;;;;;;;;;5090702;28;20262;-66
2021/08/11 00:26:50;;;;;;;13.02;8.40;;;;;;;;;;5075398;28;20021;-66
2021/08/11 00:29:15;;;;;;;17.17;9.00;;;;;;;;;;5071763;28;20021;-66
2021/08/11 00:31:41;;;;;;;17.13;9.68;;;;;;;;;;5080218;28;20020;-66
2021/08/11 00:34:06;;;;;;;18.10;9.73;;;;;;;;;;5080850;28;20088;-67
2021/08/11 00:36:31;;;;;;;19.45;8.95;;;;;;;;;;5090296;28;20270;-66
2021/08/11 00:38:56;;;;;;;15.63;9.13;;;;;;;;;;5074783;28;20032;-66
2021/08/11 00:41:21;;;;;;;18.83;9.53;;;;;;;;;;5084981;28;20313;-66
2021/08/11 00:43:46;;;;;;;16.58;9.48;;;;;;;;;;5088541;28;20265;-68
2021/08/11 00:46:12;;;;;;;13.60;8.07;;;;;;;;;;5091462;28;20016;-66
2021/08/11 00:48:37;;;;;;;14.00;8.90;;;;;;;;;;5092731;28;20273;-67
2021/08/11 00:51:03;;;;;;;17.98;9.57;;;;;;;;;;5078712;28;20349;-67
2021/08/11 00:53:29;;;;;;;16.25;9.52;;;;;;;;;;5074330;28;20385;-66
2021/08/11 00:55:55;;;;;;;13.20;8.85;;;;;;;;;;5085252;28;20470;-66
2021/08/11 00:58:20;;;;;;;16.75;8.90;;;;;;;;;;5091267;28;20038;-67
2021/08/11 01:00:47;;;;;;;18.60;9.73;;;;;;;;;;5090253;28;20054;-66
2021/08/11 01:03:20;;;;;;;18.50;11.43;;;;;;;;;;5085974;28;20052;-66
2021/08/11 01:05:46;;;;;;;23.75;11.07;;;;;;;;;;5077723;28;20059;-66
2021/08/11 01:08:11;;;;;;;18.52;10.88;;;;;;;;;;5092490;28;20044;-66
2021/08/11 01:10:37;;;;;;;20.40;11.07;;;;;;;;;;5076959;28;20116;-66
2021/08/11 01:13:02;;;;;;;22.45;11.68;;;;;;;;;;5087844;28;20064;-67
2021/08/11 01:15:27;;;;;;;24.70;11.70;;;;;;;;;;5071670;28;20529;-66
2021/08/11 01:17:52;;;;;;;24.30;12.40;;;;;;;;;;5076931;28;20036;-67
2021/08/11 01:20:18;;;;;;;25.77;12.43;;;;;;;;;;5078583;28;20095;-67
2021/08/11 01:22:48;;;;;;;22.70;12.13;;;;;;;;;;5075995;28;20466;-66
2021/08/11 01:25:26;;;;;;;25.52;13.02;;;;;;;;;;5076439;28;20683;-66
2021/08/11 01:28:09;;;;;;;27.05;12.48;;;;;;;;;;5093239;28;20016;-67
2021/08/11 01:30:44;;;;;;;24.88;12.48;;;;;;;;;;5092974;28;20024;-66
2021/08/11 01:33:28;;;;;;;28.73;13.63;;;;;;;;;;5087526;28;20054;-67
2021/08/11 01:35:57;;;;;;;23.30;13.52;;;;;;;;;;5080309;28;20031;-67
2021/08/11 01:38:23;;;;;;;28.10;13.65;;;;;;;;;;5071278;28;20099;-67
2021/08/11 01:40:54;;;;;;;31.35;14.05;;;;;;;;;;5072101;28;20028;-66
2021/08/11 01:43:21;;;;;;;30.85;15.00;;;;;;;;;;5074767;28;20016;-66
2021/08/11 01:45:47;;;;;;;31.75;14.82;;;;;;;;;;5074493;28;20435;-67
2021/08/11 01:48:16;;;;;;;35.90;15.13;;;;;;;;;;5087464;28;20039;-66
2021/08/11 01:50:44;;;;;;;31.53;14.97;;;;;;;;;;5075794;28;20024;-66
2021/08/11 01:53:16;;;;;;;35.35;14.32;;;;;;;;;;5092440;28;20073;-66
2021/08/11 01:55:41;;;;;;;30.35;14.98;;;;;;;;;;5093244;28;20106;-67
2021/08/11 01:58:07;;;;;;;28.75;13.52;;;;;;;;;;5112335;28;20106;-66
2021/08/11 02:00:33;;;;;;;31.02;14.27;;;;;;;;;;5103869;28;20023;-66
2021/08/11 02:02:58;;;;;;;26.95;14.23;;;;;;;;;;5092877;28;20024;-67
2021/08/11 02:05:24;;;;;;;30.60;13.68;;;;;;;;;;5093090;28;20055;-67
2021/08/11 02:07:50;;;;;;;32.72;15.00;;;;;;;;;;5091107;28;20020;-66
2021/08/11 02:10:16;;;;;;;33.80;15.27;;;;;;;;;;5091602;28;20027;-66
2021/08/11 02:12:41;;;;;;;34.17;15.55;;;;;;;;;;5092558;28;20016;-66
2021/08/11 02:15:07;;;;;;;35.15;15.07;;;;;;;;;;5092795;28;20020;-66
2021/08/11 02:17:32;;;;;;;32.10;15.15;;;;;;;;;;5092689;28;20057;-66
2021/08/11 02:19:57;;;;;;;31.50;15.20;;;;;;;;;;5092972;28;20025;-66
2021/08/11 02:22:23;;;;;;;34.97;15.47;;;;;;;;;;5092549;28;20381;-66
2021/08/11 02:24:48;;;;;;;30.53;13.60;;;;;;;;;;5089292;28;20278;-67
2021/08/11 02:27:17;;;;;;;34.33;14.82;;;;;;;;;;5090848;28;20258;-66
2021/08/11 02:29:48;;;;;;;31.80;14.00;;;;;;;;;;5072600;28;20494;-66
2021/08/11 02:32:20;;;;;;;37.72;14.80;;;;;;;;;;5073965;28;20177;-66
2021/08/11 02:34:54;;;;;;;31.73;13.85;;;;;;;;;;5073552;28;20108;-66
2021/08/11 02:37:24;;;;;;;29.25;13.38;;;;;;;;;;5082801;28;20025;-66
2021/08/11 02:39:59;;;;;;;31.92;14.75;;;;;;;;;;5086374;28;20029;-66
2021/08/11 02:42:30;;;;;;;31.45;14.57;;;;;;;;;;5072095;28;20020;-66
2021/08/11 02:44:55;;;;;;;33.08;14.50;;;;;;;;;;5072652;28;20023;-66
2021/08/11 02:47:21;;;;;;;32.30;14.75;;;;;;;;;;5072129;28;20490;-66
2021/08/11 02:49:46;;;;;;;33.20;13.77;;;;;;;;;;5072030;28;20043;-66
2021/08/11 02:52:13;;;;;;;28.50;14.02;;;;;;;;;;5071765;28;20029;-66
2021/08/11 02:54:39;;;;;;;33.90;13.68;;;;;;;;;;5072101;28;20348;-66
2021/08/11 02:57:05;;;;;;;29.30;13.90;;;;;;;;;;5073329;28;20032;-66
2021/08/11 02:59:30;;;;;;;38.00;14.52;;;;;;;;;;5071918;28;20032;-66
2021/08/11 03:01:56;;;;;;;33.70;15.02;;;;;;;;;;5071633;28;20406;-66
2021/08/11 03:04:21;;;;;;;29.27;14.68;;;;;;;;;;5071725;28;20433;-66
2021/08/11 03:06:46;;;;;;;30.80;15.07;;;;;;;;;;5071391;28;20417;-66
2021/08/11 03:09:11;;;;;;;37.53;13.85;;;;;;;;;;5071822;28;20806;-66
2021/08/11 03:11:37;;;;;;;32.50;13.73;;;;;;;;;;5071999;28;20460;-66
2021/08/11 03:14:06;;;;;;;38.30;15.50;;;;;;;;;;5078262;28;20429;-66
2021/08/11 03:16:31;;;;;;;33.72;15.35;;;;;;;;;;5072596;28;20111;-66
2021/08/11 03:18:57;;;;;;;34.75;15.73;;;;;;;;;;5072810;28;20114;-66
2021/08/11 03:21:22;;;;;;;32.22;13.80;;;;;;;;;;5084040;28;20016;-66
2021/08/11 03:23:47;;;;;;;34.42;14.35;;;;;;;;;;5091334;28;20028;-66
2021/08/11 03:26:13;;;;;;;27.17;14.10;;;;;;;;;;5084152;28;20506;-66
2021/08/11 03:28:38;;;;;;;32.50;12.65;;;;;;;;;;5074839;28;20498;-66
2021/08/11 03:31:03;;;;;;;36.10;14.57;;;;;;;;;;5090560;28;20028;-66
2021/08/11 03:33:29;;;;;;;28.85;14.48;;;;;;;;;;5090663;28;20042;-66
2021/08/11 03:35:54;;;;;;;32.50;14.10;;;;;;;;;;5089288;28;20051;-66
2021/08/11 03:38:19;;;;;;;29.42;12.88;;;;;;;;;;5091224;28;20024;-66
2021/08/11 03:40:44;;;;;;;30.90;13.23;;;;;;;;;;5073566;28;20028;-66
2021/08/11 03:43:09;;;;;;;26.20;11.88;;;;;;;;;;5074825;28;20269;-66
2021/08/11 03:45:35;;;;;;;26.02;12.52;;;;;;;;;;5089222;28;20405;-66
2021/08/11 03:48:00;;;;;;;25.67;13.10;;;;;;;;;;5090700;28;20449;-66
2021/08/11 03:50:25;;;;;;;26.50;12.43;;;;;;;;;;5088607;28;20549;-66
2021/08/11 03:52:51;;;;;;;25.63;12.98;;;;;;;;;;5090302;28;20270;-66
2021/08/11 03:55:16;;;;;;;29.95;12.25;;;;;;;;;;5087304;28;20111;-66
2021/08/11 03:57:41;;;;;;;31.33;12.90;;;;;;;;;;5090666;28;20511;-66
2021/08/11 04:00:07;;;;;;;26.85;12.38;;;;;;;;;;5090644;28;20020;-66
2021/08/11 04:02:32;;;;;;;33.00;12.75;;;;;;;;;;5087807;28;20047;-66
2021/08/11 04:04:57;;;;;;;28.20;12.73;;;;;;;;;;5087250;28;20017;-66
2021/08/11 04:07:23;;;;;;;31.30;12.35;;;;;;;;;;5070272;28;20028;-66
2021/08/11 04:09:48;;;;;;;42.83;12.95;;;;;;;;;;5071175;28;20029;-66
2021/08/11 04:12:13;;;;;;;27.70;11.97;;;;;;;;;;5076466;28;20535;-66
2021/08/11 04:14:38;;;;;;;30.13;11.75;;;;;;;;;;5090554;28;20250;-66
2021/08/11 04:17:03;;;;;;;26.13;11.65;;;;;;;;;;5078149;28;20028;-66
2021/08/11 04:19:29;;;;;;;33.70;11.03;;;;;;;;;;5074415;28;20071;-66
2021/08/11 04:21:54;;;;;;;25.55;11.45;;;;;;;;;;5072570;28;20787;-66
2021/08/11 04:24:19;;;;;;;25.08;10.82;;;;;;;;;;5081805;28;20016;-66
2021/08/11 04:26:44;;;;;;;32.50;11.47;;;;;;;;;;5070147;28;20073;-66
2021/08/11 04:29:09;;;;;;;24.73;11.13;;;;;;;;;;5083877;28;20289;-66
2021/08/11 04:31:35;;;;;;;25.17;10.90;;;;;;;;;;5073820;28;20028;-66
2021/08/11 04:34:00;;;;;;;20.40;10.27;;;;;;;;;;5072578;28;20621;-66
2021/08/11 04:36:25;;;;;;;22.03;10.40;;;;;;;;;;5077242;28;20111;-66
2021/08/11 04:38:50;;;;;;;20.20;10.23;;;;;;;;;;5090330;28;20576;-66
2021/08/11 04:41:15;;;;;;;20.02;9.30;;;;;;;;;;5090323;28;20273;-66
2021/08/11 04:43:41;;;;;;;15.95;6.82;;;;;;;;;;5087238;28;20016;-66
2021/08/11 04:46:06;;;;;;;15.67;7.60;;;;;;;;;;5071221;28;20020;-66
2021/08/11 04:48:32;;;;;;;18.50;8.52;;;;;;;;;;5069966;28;20328;-66
2021/08/11 04:50:57;;;;;;;18.25;9.15;;;;;;;;;;5079195;28;20028;-66
2021/08/11 04:53:22;;;;;;;18.20;9.00;;;;;;;;;;5089717;28;20052;-66
2021/08/11 04:55:48;;;;;;;19.43;8.40;;;;;;;;;;5089872;28;20262;-66
2021/08/11 04:58:14;;;;;;;15.82;8.45;;;;;;;;;;5086930;28;20281;-66
2021/08/11 05:00:39;;;;;;;17.13;9.33;;;;;;;;;;5076301;28;20036;-66
2021/08/11 05:03:04;;;;;;;19.63;8.67;;;;;;;;;;5081645;28;20737;-66
2021/08/11 05:05:29;;;;;;;21.20;9.15;;;;;;;;;;5071261;28;20324;-66
2021/08/11 05:07:55;;;;;;;18.92;9.05;;;;;;;;;;5071442;28;20086;-66
2021/08/11 05:10:21;;;;;;;16.15;7.75;;;;;;;;;;5070047;28;20103;-66
2021/08/11 05:12:46;;;;;;;19.77;8.95;;;;;;;;;;5069595;28;20099;-66
2021/08/11 05:15:11;;;;;;;17.48;8.90;;;;;;;;;;5077952;28;20027;-66
2021/08/11 05:17:36;;;;;;;15.82;7.45;;;;;;;;;;5089930;28;20016;-66
2021/08/11 05:20:03;;;;;;;17.85;9.27;;;;;;;;;;5083061;28;20474;-66
2021/08/11 05:22:28;;;;;;;15.10;8.23;;;;;;;;;;5076788;28;20290;-66
2021/08/11 05:24:53;;;;;;;17.02;8.32;;;;;;;;;;5089482;28;20032;-66
2021/08/11 05:27:18;;;;;;;18.60;9.20;;;;;;;;;;5090054;28;20024;-66
2021/08/11 05:29:45;;;;;;;15.75;8.68;;;;;;;;;;5086460;28;20755;-66
2021/08/11 05:32:11;;;;;;;22.20;7.95;;;;;;;;;;5090799;28;20024;-66
2021/08/11 05:34:37;;;;;;;18.52;8.00;;;;;;;;;;5092290;28;20028;-66
2021/08/11 05:37:02;;;;;;;20.05;8.55;;;;;;;;;;5091201;28;20032;-66
2021/08/11 05:39:27;;;;;;;18.27;9.20;;;;;;;;;;5089802;28;20056;-66
2021/08/11 05:41:52;;;;;;;15.63;8.50;;;;;;;;;;5072978;28;20039;-66
2021/08/11 05:44:18;;;;;;;19.38;8.20;;;;;;;;;;5074601;28;20112;-66
2021/08/11 05:46:43;;;;;;;20.02;7.90;;;;;;;;;;5077100;28;20028;-66
2021/08/11 05:49:10;;;;;;;15.70;8.10;;;;;;;;;;5090583;28;20031;-66
2021/08/11 05:51:36;;;;;;;18.30;8.48;;;;;;;;;;5088763;28;20270;-66
2021/08/11 05:54:02;;;;;;;13.88;7.90;;;;;;;;;;5086967;28;20030;-66
2021/08/11 05:56:27;;;;;;;17.83;8.43;;;;;;;;;;5076364;28;20024;-66
2021/08/11 05:58:53;;;;;;;16.63;7.75;;;;;;;;;;5077654;28;20029;-66
2021/08/11 06:01:18;;;;;;;21.27;8.90;;;;;;;;;;5071567;28;20024;-66
2021/08/11 06:03:43;;;;;;;18.33;8.82;;;;;;;;;;5090463;28;20020;-66
2021/08/11 06:06:09;;;;;;;19.45;8.82;;;;;;;;;;5083677;28;20036;-66
2021/08/11 06:08:34;;;;;;;14.20;7.90;;;;;;;;;;5093016;28;20481;-66
2021/08/11 06:11:00;;;;;;;13.63;8.20;;;;;;;;;;5113493;28;20039;-66
2021/08/11 06:13:25;;;;;;;12.13;7.53;;;;;;;;;;5095544;28;20032;-66
2021/08/11 06:15:50;;;;;;;13.67;7.63;;;;;;;;;;5092885;28;20269;-66
2021/08/11 06:18:15;;;;;;;14.20;7.10;;;;;;;;;;5091055;28;20278;-66
2021/08/11 06:20:40;;;;;;;11.75;7.32;;;;;;;;;;5085176;28;20058;-66
2021/08/11 06:23:06;;;;;;;15.70;7.13;;;;;;;;;;5085944;28;20466;-66
2021/08/11 06:25:31;;;;;;;11.83;7.80;;;;;;;;;;5091746;28;20497;-66
2021/08/11 06:27:56;;;;;;;14.20;7.00;;;;;;;;;;5089065;28;20278;-66
2021/08/11 06:30:21;;;;;;;12.50;6.23;;;;;;;;;;5079557;28;20339;-66
2021/08/11 06:32:46;;;;;;;11.50;7.57;;;;;;;;;;5079508;28;20258;-66
2021/08/11 06:35:12;;;;;;;13.95;6.63;;;;;;;;;;5088203;28;20494;-66
2021/08/11 06:37:43;;;;;;;10.95;6.97;;;;;;;;;;5090710;28;20517;-66
2021/08/11 06:40:09;;;;;;;16.00;7.13;;;;;;;;;;5089437;28;20490;-66
2021/08/11 06:42:34;;;;;;;12.70;6.95;;;;;;;;;;5091928;28;20231;-66
2021/08/11 06:44:59;;;;;;;12.30;5.87;;;;;;;;;;5083300;28;20031;-66
2021/08/11 06:47:25;;;;;;;14.47;7.53;;;;;;;;;;5090057;28;20254;-66
2021/08/11 06:49:50;;;;;;;14.02;6.70;;;;;;;;;;5092515;28;20250;-66
2021/08/11 06:52:15;;;;;;;13.70;5.97;;;;;;;;;;5092197;28;20111;-66
2021/08/11 06:54:40;;;;;;;12.17;6.33;;;;;;;;;;5092089;28;20315;-66
2021/08/11 06:57:05;;;;;;;10.43;6.97;;;;;;;;;;5091976;28;20328;-66
2021/08/11 06:59:30;;;;;;;9.10;6.40;;;;;;;;;;5090771;28;20369;-66
2021/08/11 07:01:56;;;;;;;12.23;6.55;;;;;;;;;;5089241;28;20262;-66
2021/08/11 07:04:21;;;;;;;10.70;6.67;;;;;;;;;;5081110;28;20098;-66
2021/08/11 07:06:46;;;;;;;9.93;6.73;;;;;;;;;;5083520;28;20810;-66
2021/08/11 07:09:11;;;;;;;11.80;5.80;;;;;;;;;;5074840;28;20265;-66
2021/08/11 07:11:36;;;;;;;12.35;6.68;;;;;;;;;;5086009;28;20090;-67
2021/08/11 07:14:03;;;;;;;10.10;6.93;;;;;;;;;;5088715;28;20085;-66
2021/08/11 07:16:28;;;;;;;11.35;5.97;;;;;;;;;;5088191;28;20251;-66
2021/08/11 07:18:53;;;;;;;14.83;6.77;;;;;;;;;;5071786;28;20077;-66
2021/08/11 07:21:18;;;;;;;11.90;6.95;;;;;;;;;;5074752;28;20028;-67
2021/08/11 07:23:44;;;;;;;13.20;6.93;;;;;;;;;;5081881;28;20405;-67
2021/08/11 07:26:09;;;;;;;9.18;6.20;;;;;;;;;;5072568;28;20141;-67
2021/08/11 07:28:34;;;;;;;11.38;6.97;;;;;;;;;;5090152;28;20081;-67
2021/08/11 07:31:00;;;;;;;12.27;6.72;;;;;;;;;;5089630;28;20093;-67
2021/08/11 07:33:25;;;;;;;9.37;6.03;;;;;;;;;;5083736;28;20021;-67
2021/08/11 07:35:50;;;;;;;9.73;6.03;;;;;;;;;;5073267;28;20262;-68
2021/08/11 07:38:16;;;;;;;8.60;5.77;;;;;;;;;;5091005;28;20509;-67
2021/08/11 07:40:42;;;;;;;10.38;6.55;;;;;;;;;;5083035;28;20278;-67
2021/08/11 07:43:07;;;;;;;9.82;5.90;;;;;;;;;;5090385;28;20643;-67
2021/08/11 07:45:33;;;;;;;8.38;6.25;;;;;;;;;;5089463;28;20051;-67
2021/08/11 07:47:58;;;;;;;10.20;6.65;;;;;;;;;;5083577;28;20023;-67
2021/08/11 07:50:25;;;;;;;11.00;5.72;;;;;;;;;;5089544;28;20048;-68
2021/08/11 07:52:50;;;;;;;9.23;6.93;;;;;;;;;;5084762;28;20483;-68
2021/08/11 07:55:15;;;;;;;11.10;6.13;;;;;;;;;;5072306;28;20028;-68
2021/08/11 07:57:41;;;;;;;10.02;7.00;;;;;;;;;;5089069;28;20040;-68
2021/08/11 08:00:07;;;;;;;7.50;6.55;;;;;;;;;;5074675;28;20081;-68
2021/08/11 08:02:32;;;;;;;9.88;6.03;;;;;;;;;;5082087;28;20470;-68
2021/08/11 08:04:58;;;;;;;8.70;6.37;;;;;;;;;;5071437;28;20070;-68
2021/08/11 08:07:23;;;;;;;9.17;6.70;;;;;;;;;;5070892;28;20259;-68
2021/08/11 08:09:48;;;;;;;14.97;5.57;;;;;;;;;;5084132;28;21701;-68
2021/08/11 08:12:13;;;;;;;9.60;6.57;;;;;;;;;;5076782;28;20678;-67
2021/08/11 08:14:38;;;;;;;10.37;6.17;;;;;;;;;;5070586;28;20025;-68
2021/08/11 08:17:03;;;;;;;9.23;6.47;;;;;;;;;;5071431;28;20026;-68
2021/08/11 08:19:29;;;;;;;7.07;6.00;;;;;;;;;;5070525;28;20450;-67
2021/08/11 08:21:54;;;;;;;8.47;5.77;;;;;;;;;;5082962;28;20259;-67
2021/08/11 08:24:20;;;;;;;8.73;6.07;;;;;;;;;;5076914;28;20055;-67
2021/08/11 08:26:46;;;;;;;10.45;6.53;;;;;;;;;;5078302;28;20386;-67
2021/08/11 08:29:11;;;;;;;8.98;6.72;;;;;;;;;;5074087;28;20024;-67
2021/08/11 08:31:36;;;;;;;11.35;6.93;;;;;;;;;;5070350;28;20077;-67
2021/08/11 08:34:01;;;;;;;7.80;5.47;;;;;;;;;;5075428;28;20474;-67
2021/08/11 08:36:27;;;;;;;10.10;5.77;;;;;;;;;;5113297;22;20067;-66
2021/08/11 08:38:52;;;;;;;12.82;6.28;;;;;;;;;;5118366;27;20027;-66
2021/08/11 08:41:17;;;;;;;9.13;6.40;;;;;;;;;;5103928;28;20024;-66
2021/08/11 08:43:42;;;;;;;11.15;7.00;;;;;;;;;;5099853;28;20735;-66
2021/08/11 08:46:08;;;;;;;10.77;5.67;;;;;;;;;;5099187;28;20095;-66
2021/08/11 08:48:37;;;;;;;10.15;5.55;;;;;;;;;;5092644;28;20288;-66
2021/08/11 08:51:03;;;;;;;8.70;5.03;;;;;;;;;;5097239;28;20052;-66
2021/08/11 08:53:28;;;;;;;8.80;5.50;;;;;;;;;;5097674;28;20102;-66
2021/08/11 08:55:53;;;;;;;6.78;4.88;;;;;;;;;;5095622;28;20081;-66
2021/08/11 08:58:19;;;;;;;9.25;5.00;;;;;;;;;;5093099;28;20524;-66
2021/08/11 09:00:44;;;;;;;6.65;5.05;;;;;;;;;;5108994;28;20016;-66
2021/08/11 09:03:09;;;;;;;7.63;4.72;;;;;;;;;;5094862;28;20016;-65
2021/08/11 09:05:35;;;;;;;5.35;3.63;;;;;;;;;;5108637;28;20076;-66
2021/08/11 09:08:00;;;;;;;9.20;3.50;;;;;;;;;;5095286;28;20020;-66
2021/08/11 09:10:26;;;;;;;5.18;3.35;;;;;;;;;;5094322;28;20292;-66
2021/08/11 09:12:54;;;;;;;9.30;2.90;;;;;;;;;;5106336;28;20019;-66
2021/08/11 09:15:33;;;;;;;6.43;3.30;;;;;;;;;;5094487;28;20069;-66
2021/08/11 09:18:08;;;;;;;5.80;3.55;;;;;;;;;;5097622;28;20137;-66
2021/08/11 09:20:33;;;;;;;4.68;3.20;;;;;;;;;;5095274;28;20521;-67
2021/08/11 09:23:00;;;;;;;4.73;3.20;;;;;;;;;;5093665;28;20104;-66
2021/08/11 09:25:25;;;;;;;6.43;4.60;;;;;;;;;;5094708;28;20035;-67
2021/08/11 09:27:50;;;;;;;6.47;3.33;;;;;;;;;;5093263;28;20122;-67
2021/08/11 09:30:17;;;;;;;9.18;3.20;;;;;;;;;;5110556;28;20032;-66
2021/08/11 09:33:04;;;;;;;5.43;3.20;;;;;;;;;;5111772;28;20020;-67
2021/08/11 09:35:29;;;;;;;6.72;3.05;;;;;;;;;;5079450;28;20447;-67
2021/08/11 09:38:01;;;;;;;5.83;3.60;;;;;;;;;;5093244;28;20111;-67
2021/08/11 09:40:28;;;;;;;6.20;3.55;;;;;;;;;;5102626;28;20270;-67
2021/08/11 09:42:54;;;;;;;8.23;3.13;;;;;;;;;;5093156;28;20023;-67
2021/08/11 09:45:20;;;;;;;4.53;2.92;;;;;;;;;;5092777;28;20494;-67
2021/08/11 09:47:53;;;;;;;3.35;2.53;;;;;;;;;;5095900;28;20023;-67
2021/08/11 09:50:18;;;;;;;7.18;3.17;;;;;;;;;;5094163;28;20028;-67
2021/08/11 09:52:45;;;;;;;7.47;2.70;;;;;;;;;;5101400;28;20019;-67
2021/08/11 09:55:10;;;;;;;2.65;2.15;;;;;;;;;;5094354;28;20062;-67
2021/08/11 09:57:35;;;;;;;4.72;2.55;;;;;;;;;;5099854;28;20496;-67
2021/08/11 10:00:00;;;;;;;3.20;2.30;;;;;;;;;;5088493;28;20029;-67
2021/08/11 10:02:26;;;;;;;3.63;2.40;;;;;;;;;;5089185;28;20024;-67
2021/08/11 10:04:51;;;;;;;7.57;2.67;;;;;;;;;;5091328;28;20254;-67
2021/08/11 10:07:17;;;;;;;3.90;2.58;;;;;;;;;;5099730;28;20023;-67
2021/08/11 10:09:42;;;;;;;5.57;2.83;;;;;;;;;;5092629;28;20028;-67
2021/08/11 10:12:24;;;;;;;4.03;2.60;;;;;;;;;;5093050;28;20386;-67
2021/08/11 10:14:49;;;;;;;3.00;2.58;;;;;;;;;;5095915;28;20028;-67
2021/08/11 10:17:14;;;;;;;4.65;2.38;;;;;;;;;;5098975;28;20028;-67
2021/08/11 10:19:40;;;;;;;5.90;3.03;;;;;;;;;;5096812;28;20408;-66
2021/08/11 10:22:11;;;;;;;5.83;3.47;;;;;;;;;;5095442;28;20269;-67
2021/08/11 10:24:37;;;;;;;5.47;2.80;;;;;;;;;;5097024;28;20269;-67
2021/08/11 10:27:07;;;;;;;7.03;3.42;;;;;;;;;;5097935;28;20496;-67
2021/08/11 10:29:32;;;;;;;7.38;3.03;;;;;;;;;;5089190;28;20035;-67
2021/08/11 10:31:58;;;;;;;4.82;3.13;;;;;;;;;;5090045;28;20035;-67
2021/08/11 10:34:23;;;;;;;6.15;3.45;;;;;;;;;;5092196;28;20028;-66
2021/08/11 10:36:48;;;;;;;7.20;2.85;;;;;;;;;;5087707;28;21525;-67
2021/08/11 10:39:16;;;;;;;7.72;3.17;;;;;;;;;;5091936;28;20392;-67
2021/08/11 10:41:42;;;;;;;8.13;3.67;;;;;;;;;;5091552;28;20092;-67
2021/08/11 10:44:14;;;;;;;6.82;4.25;;;;;;;;;;5091400;28;20115;-67
2021/08/11 10:46:44;;;;;;;6.95;4.05;;;;;;;;;;5090078;28;20526;-67
2021/08/11 10:49:16;;;;;;;7.82;3.60;;;;;;;;;;5091735;28;20028;-66
2021/08/11 10:51:42;;;;;;;7.80;3.88;;;;;;;;;;5092272;28;20020;-67
2021/08/11 10:54:08;;;;;;;4.47;3.40;;;;;;;;;;5091190;28;20027;-67
2021/08/11 10:56:47;;;;;;;4.80;3.42;;;;;;;;;;5085888;28;20024;-67
2021/08/11 10:59:21;;;;;;;8.50;3.50;;;;;;;;;;5105548;28;20099;-67
2021/08/11 11:01:47;;;;;;;6.78;3.38;;;;;;;;;;5094227;28;20490;-67
2021/08/11 11:04:32;;;;;;;6.70;4.68;;;;;;;;;;5094857;28;20024;-67
2021/08/11 11:07:23;;;;;;;7.60;4.55;;;;;;;;;;5100031;28;20032;-67
2021/08/11 11:10:09;;;;;;;7.07;3.75;;;;;;;;;;5100842;28;20043;-67
2021/08/11 11:12:38;;;;;;;10.13;4.90;;;;;;;;;;5093947;28;20024;-67
2021/08/11 11:15:03;;;;;;;9.60;5.00;;;;;;;;;;5102079;28;20011;-67
2021/08/11 11:17:33;;;;;;;7.20;3.80;;;;;;;;;;5095243;28;20080;-67
2021/08/11 11:20:08;;;;;;;7.65;4.82;;;;;;;;;;5111983;28;20027;-67
2021/08/11 11:22:37;;;;;;;9.80;4.47;;;;;;;;;;5099027;28;20023;-67
2021/08/11 11:25:06;;;;;;;8.55;4.00;;;;;;;;;;5096038;28;20049;-67
2021/08/11 11:28:04;;;;;;;6.68;4.30;;;;;;;;;;5089323;28;20027;-67
2021/08/11 11:30:28;;;;;;;12.05;4.22;;;;;;;;;;5092452;28;20229;-67
2021/08/11 11:32:54;;;;;;;11.48;4.70;;;;;;;;;;5092866;28;20374;-67
2021/08/11 11:35:23;;;;;;;9.75;4.95;;;;;;;;;;5082894;28;20020;-68
2021/08/11 11:38:11;;;;;;;11.75;5.22;;;;;;;;;;5090447;28;20020;-67
2021/08/11 11:40:54;;;;;;;11.65;4.38;;;;;;;;;;5092643;28;20380;-67
2021/08/11 11:43:23;;;;;;;11.63;4.45;;;;;;;;;;5072300;28;20458;-67
2021/08/11 11:45:49;;;;;;;7.90;4.77;;;;;;;;;;5093319;28;20020;-67
2021/08/11 11:48:15;;;;;;;7.82;4.40;;;;;;;;;;5098607;28;20040;-67
2021/08/11 11:50:43;;;;;;;11.93;4.78;;;;;;;;;;5106744;28;20095;-67
2021/08/11 11:53:11;;;;;;;7.15;4.05;;;;;;;;;;5098592;28;20477;-67
2021/08/11 11:55:37;;;;;;;6.40;4.35;;;;;;;;;;5088979;28;20016;-67
2021/08/11 11:58:06;;;;;;;8.52;5.35;;;;;;;;;;5083881;28;20024;-67
2021/08/11 12:00:31;;;;;;;8.17;4.30;;;;;;;;;;5090323;28;20492;-67
2021/08/11 12:02:57;;;;;;;9.27;3.97;;;;;;;;;;5089875;28;20084;-67
2021/08/11 12:05:22;;;;;;;7.57;4.25;;;;;;;;;;5091531;28;20019;-67
2021/08/11 12:07:48;;;;;;;6.63;4.47;;;;;;;;;;5096683;28;20023;-67
2021/08/11 12:10:26;;;;;;;8.57;4.72;;;;;;;;;;5090650;28;20060;-67
2021/08/11 12:13:02;;;;;;;11.43;5.78;;;;;;;;;;5106671;28;20028;-67
2021/08/11 12:15:32;;;;;;;7.07;4.28;;;;;;;;;;5088502;28;20048;-67
2021/08/11 12:17:57;;;;;;;6.72;4.38;;;;;;;;;;5089664;28;20076;-67
2021/08/11 12:20:26;;;;;;;10.82;4.20;;;;;;;;;;5088688;28;20019;-67
2021/08/11 12:22:51;;;;;;;5.97;3.75;;;;;;;;;;5086612;28;20482;-67
2021/08/11 12:25:34;;;;;;;12.20;4.78;;;;;;;;;;5089925;28;20024;-67
2021/08/11 12:28:15;;;;;;;6.05;3.47;;;;;;;;;;5088028;28;20039;-67
2021/08/11 12:30:42;;;;;;;9.57;3.83;;;;;;;;;;5095375;28;20032;-67
2021/08/11 12:33:07;;;;;;;7.90;4.13;;;;;;;;;;5076412;28;20024;-67
2021/08/11 12:35:36;;;;;;;6.68;4.30;;;;;;;;;;5076121;28;20019;-67
2021/08/11 12:38:02;;;;;;;9.43;4.65;;;;;;;;;;5099668;28;20028;-67
2021/08/11 12:40:31;;;;;;;8.03;4.33;;;;;;;;;;5091043;28;20026;-67
2021/08/11 12:42:57;;;;;;;7.35;3.63;;;;;;;;;;5088979;28;20504;-67
2021/08/11 12:45:22;;;;;;;8.30;5.10;;;;;;;;;;5092925;28;20028;-67
2021/08/11 12:47:47;;;;;;;9.82;4.80;;;;;;;;;;5084614;28;20053;-67
2021/08/11 12:50:19;;;;;;;6.23;4.50;;;;;;;;;;5089374;28;20039;-67
2021/08/11 12:52:57;;;;;;;5.55;3.85;;;;;;;;;;5090001;28;20628;-67
2021/08/11 12:55:32;;;;;;;7.32;4.43;;;;;;;;;;5070121;28;20033;-67
2021/08/11 12:57:57;;;;;;;8.48;4.28;;;;;;;;;;5087186;28;20388;-67
2021/08/11 13:00:53;;;;;;;5.45;3.72;;;;;;;;;;5089531;28;20012;-67
2021/08/11 13:03:19;;;;;;;7.40;4.00;;;;;;;;;;5068804;28;20545;-67
2021/08/11 13:05:48;;;;;;;8.10;4.05;;;;;;;;;;5089566;28;20104;-67
2021/08/11 13:08:14;;;;;;;8.02;4.40;;;;;;;;;;5089065;28;20509;-67
2021/08/11 13:10:51;;;;;;;7.45;3.92;;;;;;;;;;5087884;28;20051;-67
2021/08/11 13:13:26;;;;;;;7.20;3.67;;;;;;;;;;5087430;28;20020;-68
2021/08/11 13:16:12;;;;;;;10.43;3.75;;;;;;;;;;5094477;28;20020;-68
2021/08/11 13:18:38;;;;;;;8.07;4.82;;;;;;;;;;5099110;28;20478;-68
2021/08/11 13:21:03;;;;;;;6.18;4.20;;;;;;;;;;5110198;28;20016;-67
2021/08/11 13:23:28;;;;;;;7.93;4.13;;;;;;;;;;5097396;28;20528;-68
2021/08/11 13:25:55;;;;;;;11.00;4.70;;;;;;;;;;5088912;28;20376;-68
2021/08/11 13:28:21;;;;;;;7.22;4.20;;;;;;;;;;5089418;28;20345;-68
2021/08/11 13:30:47;;;;;;;8.75;4.72;;;;;;;;;;5095808;28;20115;-68
2021/08/11 13:33:12;;;;;;;8.70;4.32;;;;;;;;;;5102917;28;20102;-68
2021/08/11 13:35:37;;;;;;;8.37;4.40;;;;;;;;;;5105769;28;20054;-68
2021/08/11 13:38:03;;;;;;;8.25;4.03;;;;;;;;;;5090493;28;20028;-68
2021/08/11 13:40:29;;;;;;;11.02;5.13;;;;;;;;;;5093527;28;20413;-68
2021/08/11 13:42:54;;;;;;;9.07;4.07;;;;;;;;;;5092140;28;20051;-68
2021/08/11 13:45:19;;;;;;;8.65;4.03;;;;;;;;;;5089692;28;20016;-69
2021/08/11 13:47:45;;;;;;;9.53;4.13;;;;;;;;;;5099662;28;20063;-67
2021/08/11 13:50:11;;;;;;;8.05;4.07;;;;;;;;;;5089418;28;20379;-67
2021/08/11 13:52:36;;;;;;;10.05;4.35;;;;;;;;;;5088584;28;20024;-68
2021/08/11 13:55:02;;;;;;;10.30;3.55;;;;;;;;;;5103830;28;20024;-68
2021/08/11 13:57:29;;;;;;;8.55;4.18;;;;;;;;;;5108996;28;20438;-68
2021/08/11 13:59:54;;;;;;;6.95;3.85;;;;;;;;;;5097333;28;20103;-67
2021/08/11 14:02:20;;;;;;;5.78;3.95;;;;;;;;;;5093439;28;20099;-68
2021/08/11 14:04:45;;;;;;;9.30;4.40;;;;;;;;;;5093652;28;20074;-68
2021/08/11 14:07:10;;;;;;;6.82;4.60;;;;;;;;;;5093409;28;20517;-67
2021/08/11 14:09:35;;;;;;;7.30;4.30;;;;;;;;;;5088838;28;20465;-68
2021/08/11 14:12:01;;;;;;;12.55;4.57;;;;;;;;;;5092178;28;20262;-68
2021/08/11 14:14:27;;;;;;;7.85;4.10;;;;;;;;;;5092615;28;20515;-68
2021/08/11 14:16:52;;;;;;;11.20;4.18;;;;;;;;;;5092472;28;20030;-66
2021/08/11 14:19:17;;;;;;;8.93;4.10;;;;;;;;;;5097199;28;20481;-68
2021/08/11 14:21:43;;;;;;;8.85;4.40;;;;;;;;;;5098075;28;20099;-68
2021/08/11 14:24:08;;;;;;;5.15;3.60;;;;;;;;;;5102602;28;20019;-68
2021/08/11 14:26:33;;;;;;;6.25;4.10;;;;;;;;;;5093960;28;20027;-67
2021/08/11 14:28:58;;;;;;;9.30;4.20;;;;;;;;;;5092386;28;20031;-68